Current Weather

Waukegan

Waukegan, Illinois (KUGN)

Report from: Sunday, April 21, 2024 3:51 PM CDT
Current time: Sunday, April 21, 2024 4:03 PM CDT

Nearby weather – Weather history – Daily summaries
Weather forecast

Temperature13.9°C (57.0°F)
Dew point-3.3°C (26.1°F)
Winds 9 kts (4.6 m/s, 10.4 mph) West-Northwest (290°)
Wind gusts 16 kts (8.2 m/s, 18.4 mph)
Visibility10 mi. (16.1 km)
Clouds Sky clear
Altimeter30.10 in.Hg (1019 mB)
Relative humidity30 %
Density altitude-273 ft. (-83 m)
Sea-level pressure102.0 kPa (1020 mB, 30.11 in.Hg)
Remarks Automated weather observing station with precipitation discriminator
Pressure falling more slowly
Flight conditions Visual Meteorological Conditions
Raw dataKUGN 212051Z 29009G16KT 10SM CLR 14/M03 A3010 RMK AO2 SLP198 T01391033 56013
An error has occurred. This application may no longer respond until reloaded. Reload 🗙